Latest Coastal Weather Observations for Eucla

IDW60701

Issued at 8:55 pm WST Thursday 30 October 2014 (issued every 10 minutes, with the page automatically refreshed every 10 minutes)

About coastal observations | Map of coastal stations | Coastal observations for WA | Marine services | Other Formats
Station Details ID: 011003 Name: EUCLA Lat: -31.68 Lon: 128.90 Height: 93.1 m
Data from the previous 72 hours. | See also: Recent months at Eucla
Date/Time
WST
Temp

°C
Wind Pressure Rain
since 9am
mm
Weather Cloud Vis
km
Sea
Height
m
Swell
Dir
 
Speed
knots
Gust
knots
hPa Trend Height
m
Period
s
Dir
30/08:30pm 18.9 WSW 12 18 1011.5 - 4.4 - - - - - - -
30/08:05pm 18.7 W 15 26 1011.0 - 4.4 - - - - - - -
30/08:03pm 18.3 W 13 21 1010.6 - 4.4 - - - - - - -
30/08:00pm 17.7 SSW 4 8 1008.6 - 4.4 - - - - - - -
30/07:30pm 17.0 SW 0 0 1007.5 - 4.4 - - - - - - -
30/07:00pm 18.0 E 5 6 1007.2 - 4.4 - - - - - - -
30/06:30pm 18.3 E 6 8 1007.2 - 4.4 - - - - - - -
30/06:00pm 19.1 SE 9 13 1006.9 - 4.4 Recent precip. - - - - - -
30/05:30pm 20.0 SW 5 8 1008.1 - 4.4 - - - - - - -
30/05:00pm 24.1 S 5 7 1008.0 - 0.0 - - - - - - -
30/04:30pm 25.5 SSW 9 15 1007.6 - 0.0 - - - - - - -
30/04:00pm 26.0 E 7 12 1007.5 - 0.0 - - - - - - -
30/03:30pm 27.7 ESE 9 13 1007.5 - 0.0 - - - - - - -
30/03:00pm 28.6 ESE 8 11 1007.8 - 0.0 Thunder Mostly cloudy 40 - - - -
30/02:30pm 30.1 ESE 9 12 1007.7 - 0.0 - - - - - - -
30/02:00pm 30.9 SE 8 11 1008.0 - 0.0 - - - - - - -
30/01:30pm 31.5 SE 7 8 1008.6 - 0.0 - - - - - - -
30/01:00pm 31.6 SE 4 7 1009.0 - 0.0 - - - - - - -
30/12:30pm 30.5 ENE 4 6 1009.4 - 0.0 - - - - - - -
30/12:00pm 30.6 NE 5 7 1009.8 - 0.0 - - - - - - -
30/11:30am 30.0 W 7 10 1010.1 - 0.0 - - - - - - -
30/11:00am 30.2 N 8 10 1010.0 - 0.0 - - - - - - -
30/10:30am 30.1 N 8 11 1010.5 - 0.0 - - - - - - -
30/10:00am 29.9 NNW 11 15 1011.1 - 0.0 - - - - - - -
30/09:30am 27.9 N 10 15 1011.7 - 0.0 - - - - - - -
30/09:00am 27.6 N 15 20 1011.5 - 0.0 Fine Cloudy 40 - - - -
30/08:30am 27.4 NNE 16 21 1011.5 - 0.0 - - - - - - -
30/08:00am 24.6 NNE 15 20 1011.5 - 0.0 - - - - - - -
30/07:30am 23.5 NNE 15 20 1011.9 - 0.0 - - - - - - -
30/07:00am 22.0 N 13 19 1012.0 - 0.0 - - - - - - -
30/06:30am 21.1 NNE 13 20 1011.9 - 0.0 - - - - - - -
30/06:00am 19.9 N 13 19 1011.9 - 0.0 - - - - - - -
30/05:30am 18.5 N 13 18 1011.8 - 0.0 - - - - - - -
30/05:00am 18.5 NNE 13 18 1011.8 - 0.0 - - - - - - -
30/04:30am 18.5 NNE 12 19 1011.5 - 0.0 - - - - - - -
30/04:00am 18.3 N 12 18 1011.4 - 0.0 - - - - - - -
30/03:30am 18.3 NNE 12 17 1011.3 - 0.0 - - - - - - -
30/03:00am 18.3 NNE 13 18 1011.5 - 0.0 - - - - - - -
30/02:30am 18.5 NNE 14 20 1011.6 - 0.0 - - - - - - -
30/02:00am 18.3 NNE 14 20 1011.9 - 0.0 - - - - - - -
30/01:30am 17.9 NNE 12 17 1012.3 - 0.0 - - - - - - -
30/01:00am 17.6 NNE 12 16 1012.5 - 0.0 - - - - - - -
30/12:30am 17.6 NNE 12 17 1012.7 - 0.0 - - - - - - -
30/12:00am 17.8 NE 12 17 1013.0 - 0.0 - - - - - - -
 
Date/Time
WST
Temp

°C
Wind Pressure Rain
since 9am
mm
Weather Cloud Vis
km
Sea
Height
m
Swell
Dir
 
Speed
knots
Gust
knots
hPa Trend Height
m
Period
s
Dir
29/11:30pm 17.6 NE 10 15 1013.2 - 0.0 - - - - - - -
29/11:00pm 17.7 NE 9 12 1013.8 - 0.0 - - - - - - -
29/10:30pm 18.2 NE 9 12 1014.1 - 0.0 - - - - - - -
29/10:00pm 18.8 NE 8 14 1014.6 - 0.0 - - - - - - -
29/09:30pm 19.1 ENE 9 14 1014.6 - 0.0 - - - - - - -
29/09:00pm 19.4 ENE 10 15 1014.9 - 0.0 - - - - - - -
29/08:30pm 19.7 ENE 10 15 1014.7 - 0.0 - - - - - - -
29/08:00pm 19.8 ENE 10 14 1014.8 - 0.0 - - - - - - -
29/07:30pm 20.0 ENE 9 13 1015.2 - 0.0 - - - - - - -
29/07:00pm 20.1 ENE 10 16 1014.7 - 0.0 - - - - - - -
29/06:30pm 20.4 ENE 10 15 1014.9 - 0.0 - - - - - - -
29/06:00pm 20.3 E 11 16 1014.7 - 0.0 - - - - - - -
29/05:30pm 20.5 E 11 17 1014.4 - 0.0 - - - - - - -
29/05:00pm 21.3 E 10 17 1014.2 - 0.0 - - - - - - -
29/04:30pm 21.3 E 12 16 1014.2 - 0.0 - - - - - - -
29/04:00pm 21.7 E 10 15 1014.2 - 0.0 - - - - - - -
29/03:30pm 21.3 E 11 18 1014.0 - 0.0 - - - - - - -
29/03:00pm 19.5 ESE 11 16 1014.1 - 0.0 Haze Mostly cloudy 25 - - - -
29/02:30pm 19.5 ESE 10 16 1014.3 - 0.0 - - - - - - -
29/02:00pm 21.5 ESE 13 17 1014.3 - 0.0 - - - - - - -
29/01:30pm 22.2 ESE 11 16 1014.3 - 0.0 - - - - - - -
29/01:00pm 22.1 ESE 11 16 1014.7 - 0.0 - - - - - - -
29/12:30pm 22.9 SE 9 13 1015.1 - 0.0 - - - - - - -
29/12:00pm 23.0 SE 9 13 1015.4 - 0.0 - - - - - - -
29/11:30am 23.1 ESE 9 15 1015.5 - 0.0 - - - - - - -
29/11:00am 22.8 ESE 9 15 1015.7 - 0.0 - - - - - - -
29/10:30am 22.8 SE 10 14 1016.1 - 0.0 - - - - - - -
29/10:00am 23.4 SE 9 13 1016.6 - 0.0 - - - - - - -
29/09:30am 23.1 SE 8 11 1016.9 - 0.0 - - - - - - -
29/09:00am 22.8 E 7 10 1017.3 - 0.0 Fine Partly cloudy 40 - - - -
29/08:30am 24.2 NE 6 10 1017.7 - 0.0 - - - - - - -
29/08:00am 22.2 NE 8 11 1017.9 - 0.0 - - - - - - -
29/07:30am 19.8 NE 9 13 1018.0 - 0.0 - - - - - - -
29/07:00am 17.3 NNE 9 14 1017.9 - 0.0 - - - - - - -
29/06:30am 15.4 NE 11 17 1017.8 - 0.0 - - - - - - -
29/06:00am 13.9 NNE 10 15 1018.0 - 0.0 - - - - - - -
29/05:30am 12.8 NNE 9 14 1018.0 - 0.0 - - - - - - -
29/05:00am 11.8 NNE 9 13 1018.0 - 0.0 - - - - - - -
29/04:30am 11.2 NNE 9 14 1017.7 - 0.0 - - - - - - -
29/04:00am 11.0 NNE 8 10 1017.8 - 0.0 - - - - - - -
29/03:30am 11.1 NNE 8 11 1017.8 - 0.0 - - - - - - -
29/03:00am 11.2 NNE 8 11 1017.7 - 0.0 - - - - - - -
29/02:30am 11.4 NE 8 11 1017.6 - 0.0 - - - - - - -
29/02:00am 11.3 NE 7 10 1017.6 - 0.0 - - - - - - -
29/01:30am 11.2 NE 7 8 1017.6 - 0.0 - - - - - - -
29/01:00am 11.4 NE 6 7 1017.8 - 0.0 - - - - - - -
29/12:30am 12.7 ENE 6 7 1017.9 - 0.0 - - - - - - -
29/12:00am 14.0 E 6 9 1018.1 - 0.0 - - - - - - -
 
Date/Time
WST
Temp

°C
Wind Pressure Rain
since 9am
mm
Weather Cloud Vis
km
Sea
Height
m
Swell
Dir
 
Speed
knots
Gust
knots
hPa Trend Height
m
Period
s
Dir
28/11:30pm 14.1 E 6 8 1018.4 - 0.0 - - - - - - -
28/11:00pm 13.5 E 6 9 1018.8 - 0.0 - - - - - - -
28/10:30pm 13.2 ENE 5 7 1019.0 - 0.0 - - - - - - -
28/10:00pm 13.8 E 6 8 1019.1 - 0.0 - - - - - - -
28/09:30pm 14.4 E 7 9 1019.3 - 0.0 - - - - - - -
28/09:00pm 14.7 E 8 12 1019.4 - 0.0 - - - - - - -
28/08:30pm 14.8 E 8 11 1019.7 - 0.0 - - - - - - -
28/08:00pm 15.0 E 8 11 1019.8 - 0.0 - - - - - - -
28/07:30pm 15.1 E 9 14 1019.8 - 0.0 - - - - - - -
28/07:00pm 15.3 E 8 13 1019.7 - 0.0 - - - - - - -
28/06:30pm 15.3 E 9 17 1019.3 - 0.0 - - - - - - -
28/06:00pm 15.6 ESE 10 16 1019.1 - 0.0 - - - - - - -
28/05:30pm 15.9 ESE 12 17 1019.0 - 0.0 - - - - - - -
28/05:00pm 16.6 ESE 12 18 1019.0 - 0.0 - - - - - - -
28/04:30pm 17.3 ESE 13 19 1019.1 - 0.0 - - - - - - -
28/04:00pm 17.6 ESE 12 18 1019.1 - 0.0 - - - - - - -
28/03:30pm 18.0 ESE 12 18 1019.2 - 0.0 - - - - - - -
28/03:00pm 18.4 ESE 13 18 1019.1 - 0.0 Haze Clear 25 - - - -
28/02:30pm 18.9 SE 13 19 1019.2 - 0.0 - - - - - - -
28/02:00pm 18.8 SE 13 19 1019.5 - 0.0 - - - - - - -
28/01:30pm 18.9 SE 11 18 1019.8 - 0.0 - - - - - - -
28/01:00pm 20.3 SE 12 17 1020.2 - 0.0 - - - - - - -
28/12:30pm 19.7 SE 10 15 1020.5 - 0.0 - - - - - - -
28/12:00pm 20.1 SE 10 14 1020.9 - 0.0 - - - - - - -
28/11:30am 19.6 SE 9 15 1021.0 - 0.0 - - - - - - -
28/11:00am 20.2 SE 9 14 1021.2 - 0.0 - - - - - - -
28/10:30am 20.9 SE 9 14 1021.4 - 0.0 - - - - - - -
28/10:00am 20.1 ESE 9 13 1021.9 - 0.0 - - - - - - -
28/09:30am 19.6 ESE 9 12 1022.3 - 0.0 - - - - - - -
28/09:00am 19.2 SE 8 11 1022.4 - 0.0 Haze Mostly clear 25 - - - -
28/08:30am 18.6 ESE 7 11 1022.5 - 0.0 - - - - - - -
28/08:00am 18.2 ESE 7 10 1022.5 - 0.0 - - - - - - -
28/07:30am 17.9 ESE 6 9 1022.1 - 0.0 - - - - - - -
28/07:00am 16.9 ENE 5 8 1022.1 - 0.0 - - - - - - -
28/06:30am 14.7 NNE 5 7 1022.1 - 0.0 - - - - - - -
28/06:00am 12.1 N 5 7 1022.1 - 0.0 - - - - - - -
28/05:30am 9.4 N 5 6 1021.9 - 0.0 - - - - - - -
28/05:00am 7.5 N 5 6 1021.6 - 0.0 - - - - - - -
28/04:30am 7.5 NNE 6 6 1021.3 - 0.0 - - - - - - -
28/04:00am 7.1 N 6 7 1021.0 - 0.0 - - - - - - -
28/03:30am 6.8 N 6 6 1020.9 - 0.0 - - - - - - -
28/03:00am 7.0 N 5 6 1020.9 - 0.0 - - - - - - -
28/02:30am 7.7 NNE 5 6 1020.8 - 0.0 - - - - - - -
28/02:00am 8.1 NNE 5 6 1020.9 - 0.0 - - - - - - -
28/01:30am 8.7 NNE 5 6 1021.1 - 0.0 - - - - - - -
28/01:00am 8.9 NE 5 5 1021.2 - 0.0 - - - - - - -
28/12:30am 9.1 NE 5 6 1021.4 - 0.0 - - - - - - -
28/12:00am 8.8 NE 5 6 1021.7 - 0.0 - - - - - - -
 
Date/Time
WST
Temp

°C
Wind Pressure Rain
since 9am
mm
Weather Cloud Vis
km
Sea
Height
m
Swell
Dir
 
Speed
knots
Gust
knots
hPa Trend Height
m
Period
s
Dir
27/11:30pm 10.0 ENE 5 6 1022.1 - 0.0 - - - - - - -
27/11:00pm 11.2 E 5 6 1022.2 - 0.0 - - - - - - -
27/10:30pm 10.7 ENE 5 6 1022.3 - 0.0 - - - - - - -
27/10:00pm 11.0 ENE 5 6 1022.2 - 0.0 - - - - - - -
27/09:30pm 11.9 E 5 6 1022.4 - 0.0 - - - - - - -
27/09:00pm 12.7 ESE 5 6 1022.3 - 0.0 - - - - - - -

Other Formats:

Comma delimited format used in spreadsheet applications
http://www.bom.gov.au/fwo/IDW60701/IDW60701.94647.axf

JavaScript Object Notation format (JSON) in row-major order
http://www.bom.gov.au/fwo/IDW60701/IDW60701.94647.json